createdAt,value
2023-04-11T00:01:29.567Z,1.15
2023-04-11T00:03:59.155Z,0.85
2023-04-11T00:06:27.902Z,0.90
2023-04-11T00:08:56.609Z,0.98
2023-04-11T00:11:25.301Z,0.90
2023-04-11T00:13:57.364Z,1.15
2023-04-11T00:16:25.437Z,1.45
2023-04-11T00:18:54.055Z,1.10
2023-04-11T00:21:23.468Z,1.13
2023-04-11T00:23:53.304Z,1.00
2023-04-11T00:26:22.215Z,1.10
2023-04-11T00:28:49.963Z,0.98
2023-04-11T00:31:17.766Z,1.10
2023-04-11T00:33:45.529Z,1.05
2023-04-11T00:36:13.308Z,1.13
2023-04-11T00:38:42.514Z,0.93
2023-04-11T00:41:10.228Z,1.15
2023-04-11T00:43:38.058Z,0.93
2023-04-11T00:46:06.803Z,1.00
2023-04-11T00:48:34.656Z,0.85
2023-04-11T00:51:03.476Z,1.30
2023-04-11T00:53:32.872Z,1.55
2023-04-11T00:56:02.036Z,1.25
2023-04-11T00:58:30.036Z,1.17
2023-04-11T01:00:58.105Z,1.15
2023-04-11T01:03:26.302Z,1.42
2023-04-11T01:05:55.424Z,1.35
2023-04-11T01:08:24.977Z,1.40
2023-04-11T01:10:52.874Z,1.27
2023-04-11T01:13:22.085Z,1.20
2023-04-11T01:15:49.848Z,1.30
2023-04-11T01:18:17.969Z,1.20
2023-04-11T01:20:45.704Z,1.23
2023-04-11T01:23:16.281Z,1.25
2023-04-11T01:25:45.422Z,1.17
2023-04-11T01:28:14.160Z,1.50
2023-04-11T01:30:41.944Z,1.45
2023-04-11T01:33:10.697Z,1.58
2023-04-11T01:35:38.783Z,1.40
2023-04-11T01:38:07.099Z,1.55
2023-04-11T01:40:35.647Z,1.17
2023-04-11T01:43:05.220Z,1.17
2023-04-11T01:45:33.788Z,1.40
2023-04-11T01:48:06.797Z,1.35
2023-04-11T01:50:34.908Z,0.80
2023-04-11T01:53:02.706Z,1.45
2023-04-11T01:55:30.485Z,0.90
2023-04-11T01:57:58.272Z,1.02
2023-04-11T02:00:27.287Z,0.80
2023-04-11T02:02:55.395Z,1.45
2023-04-11T02:05:23.596Z,1.00
2023-04-11T02:07:51.289Z,0.68
2023-04-11T02:10:19.348Z,1.13
2023-04-11T02:12:47.073Z,1.20
2023-04-11T02:15:14.823Z,1.73
2023-04-11T02:17:45.640Z,1.30
2023-04-11T02:21:03.247Z,1.60
2023-04-11T02:23:30.970Z,1.10
2023-04-11T02:25:58.656Z,0.95
2023-04-11T02:28:26.331Z,1.27
2023-04-11T02:30:54.286Z,1.05
2023-04-11T02:33:23.549Z,1.20
2023-04-11T02:35:51.304Z,0.77
2023-04-11T02:38:19.009Z,0.88
2023-04-11T02:40:46.694Z,0.80
2023-04-11T02:43:14.858Z,1.33
2023-04-11T02:45:42.995Z,1.25
2023-04-11T02:48:10.715Z,1.02
2023-04-11T02:50:40.786Z,1.23
2023-04-11T02:53:08.775Z,1.08
2023-04-11T02:55:36.609Z,1.05
2023-04-11T02:58:04.308Z,0.98
2023-04-11T03:00:32.588Z,0.98
2023-04-11T03:03:02.568Z,1.05
2023-04-11T03:05:30.335Z,0.98
2023-04-11T03:07:59.369Z,0.65
2023-04-11T03:10:27.092Z,0.77
2023-04-11T03:12:54.787Z,0.60
2023-04-11T03:15:22.655Z,0.38
2023-04-11T03:17:50.521Z,1.20
2023-04-11T03:20:19.700Z,0.98
2023-04-11T03:22:48.408Z,0.65
2023-04-11T03:25:17.560Z,0.47
2023-04-11T03:27:45.255Z,0.70
2023-04-11T03:30:15.174Z,0.55
2023-04-11T03:32:42.983Z,0.80
2023-04-11T03:35:11.131Z,0.98
2023-04-11T03:37:38.892Z,1.02
2023-04-11T03:40:09.364Z,1.10
2023-04-11T03:42:38.473Z,0.63
2023-04-11T03:45:08.212Z,0.70
2023-04-11T03:47:36.026Z,0.70
2023-04-11T03:50:03.947Z,1.05
2023-04-11T03:52:31.688Z,0.93
2023-04-11T03:54:59.399Z,0.68
2023-04-11T03:57:27.997Z,1.35
2023-04-11T03:59:57.382Z,1.15
2023-04-11T04:02:25.434Z,1.30
2023-04-11T04:04:58.325Z,0.77
2023-04-11T04:07:26.379Z,1.17
2023-04-11T04:09:55.262Z,0.85
2023-04-11T04:12:23.319Z,1.42
2023-04-11T04:14:51.015Z,1.27
2023-04-11T04:17:20.057Z,1.20
2023-04-11T04:19:47.848Z,0.93
2023-04-11T04:22:17.412Z,1.05
2023-04-11T04:24:47.448Z,1.17
2023-04-11T04:27:18.006Z,1.17
2023-04-11T04:29:53.222Z,1.02
2023-04-11T04:32:32.361Z,1.00
2023-04-11T04:35:01.494Z,1.05
2023-04-11T04:37:29.316Z,1.15
2023-04-11T04:40:02.089Z,0.80
2023-04-11T04:42:30.953Z,1.48
2023-04-11T04:44:58.764Z,1.45
2023-04-11T04:47:33.435Z,0.85
2023-04-11T04:50:01.630Z,1.10
2023-04-11T04:52:30.814Z,0.70
2023-04-11T04:54:59.853Z,1.00
2023-04-11T04:57:28.312Z,0.88
2023-04-11T04:59:56.680Z,1.40
2023-04-11T05:02:25.399Z,0.93
2023-04-11T05:04:55.565Z,0.98
2023-04-11T05:07:23.572Z,1.00
2023-04-11T05:09:51.326Z,1.08
2023-04-11T05:12:20.169Z,1.73
2023-04-11T05:14:48.414Z,1.17
2023-04-11T05:17:16.246Z,1.17
2023-04-11T05:19:43.949Z,1.27
2023-04-11T05:22:13.022Z,1.00
2023-04-11T05:24:40.706Z,1.50
2023-04-11T05:27:08.534Z,1.27
2023-04-11T05:29:36.242Z,1.20
2023-04-11T05:32:04.123Z,1.13
2023-04-11T05:34:34.167Z,1.08
2023-04-11T05:37:02.289Z,1.38
2023-04-11T05:39:31.735Z,1.30
2023-04-11T05:41:59.400Z,1.33
2023-04-11T05:44:27.075Z,0.82
2023-04-11T05:46:54.791Z,1.08
2023-04-11T05:49:22.464Z,1.17
2023-04-11T05:51:50.208Z,1.27
2023-04-11T05:54:35.127Z,1.02
2023-04-11T05:57:03.666Z,0.55
2023-04-11T05:59:32.568Z,0.47
2023-04-11T06:02:00.693Z,0.25
2023-04-11T06:04:28.687Z,0.30
2023-04-11T06:06:57.168Z,0.10
2023-04-11T06:09:25.350Z,0.45
2023-04-11T06:11:54.366Z,0.50
2023-04-11T06:14:22.053Z,0.50
2023-04-11T06:16:49.895Z,0.22
2023-04-11T06:19:18.377Z,0.30
2023-04-11T06:21:46.061Z,0.55
2023-04-11T06:24:13.800Z,0.22
2023-04-11T06:26:41.798Z,0.30
2023-04-11T06:29:10.937Z,0.60
2023-04-11T06:31:38.714Z,0.65
2023-04-11T06:34:06.451Z,0.30
2023-04-11T06:36:34.153Z,0.45
2023-04-11T06:39:01.864Z,0.50
2023-04-11T06:41:29.741Z,0.82
2023-04-11T06:43:57.651Z,0.50
2023-04-11T06:46:27.167Z,0.57
2023-04-11T06:48:55.728Z,0.50
2023-04-11T06:51:23.396Z,0.80
2023-04-11T06:53:51.097Z,0.40
2023-04-11T06:56:18.898Z,0.88
2023-04-11T06:58:46.602Z,0.30
2023-04-11T07:01:14.314Z,0.60
2023-04-11T07:03:44.055Z,0.45
2023-04-11T07:06:11.917Z,0.43
2023-04-11T07:08:39.981Z,0.38
2023-04-11T07:11:08.749Z,0.38
2023-04-11T07:13:36.653Z,0.20
2023-04-11T07:16:04.635Z,0.20
2023-04-11T07:18:32.863Z,1.33
2023-04-11T07:21:01.986Z,0.32
2023-04-11T07:23:29.926Z,0.10
2023-04-11T07:25:57.786Z,0.10
2023-04-11T07:28:25.770Z,0.10
2023-04-11T07:30:53.494Z,0.10
2023-04-11T07:33:21.560Z,0.10
2023-04-11T07:35:49.350Z,0.20
2023-04-11T07:38:27.516Z,0.00
2023-04-11T07:40:55.325Z,0.20
2023-04-11T07:43:23.069Z,0.13
2023-04-11T07:45:51.276Z,0.10
2023-04-11T07:48:19.164Z,0.30
2023-04-11T07:50:47.045Z,0.10
2023-04-11T07:53:14.879Z,0.13
2023-04-11T07:55:43.979Z,0.30
2023-04-11T07:58:11.808Z,0.10
2023-04-11T08:00:39.618Z,0.40
2023-04-11T08:03:09.378Z,0.10
2023-04-11T08:05:38.714Z,0.38
2023-04-11T08:08:07.561Z,0.30
2023-04-11T08:10:35.912Z,0.20
2023-04-11T08:13:04.921Z,0.10
2023-04-11T08:15:32.761Z,0.10
2023-04-11T08:18:00.472Z,0.20
2023-04-11T08:20:28.188Z,0.30
2023-04-11T08:22:55.968Z,0.40
2023-04-11T08:25:23.720Z,0.88
2023-04-11T08:27:52.405Z,0.60
2023-04-11T08:30:22.183Z,0.30
2023-04-11T08:32:49.933Z,0.20
2023-04-11T08:35:17.661Z,0.38
2023-04-11T08:37:45.489Z,0.20
2023-04-11T08:40:13.551Z,0.10
2023-04-11T08:42:41.365Z,0.30
2023-04-11T08:45:11.048Z,0.10
2023-04-11T08:47:40.716Z,0.38
2023-04-11T08:50:10.759Z,0.30
2023-04-11T08:52:41.318Z,0.20
2023-04-11T08:55:11.085Z,0.35
2023-04-11T08:57:38.972Z,0.28
2023-04-11T09:00:14.441Z,0.22
2023-04-11T09:02:59.346Z,0.15
2023-04-11T09:05:31.905Z,0.20
2023-04-11T09:08:01.299Z,0.20
2023-04-11T09:10:29.262Z,0.30
2023-04-11T09:12:57.801Z,0.30
2023-04-11T09:15:28.419Z,0.52
2023-04-11T09:18:00.844Z,0.30
2023-04-11T09:20:30.475Z,0.63
2023-04-11T09:23:00.005Z,0.35
2023-04-11T09:25:28.462Z,0.22
2023-04-11T09:28:09.979Z,0.20
2023-04-11T09:30:37.821Z,0.40
2023-04-11T09:33:24.060Z,0.55
2023-04-11T09:35:54.836Z,0.40
2023-04-11T09:38:31.312Z,0.52
2023-04-11T09:40:59.770Z,0.57
2023-04-11T09:43:27.620Z,0.57
2023-04-11T09:46:10.122Z,0.60
2023-04-11T09:51:15.850Z,0.55
2023-04-11T09:53:48.673Z,0.30
2023-04-11T09:56:16.450Z,0.80
2023-04-11T09:58:44.164Z,0.55
2023-04-11T10:01:12.059Z,0.35
2023-04-11T10:03:41.781Z,0.50
2023-04-11T10:06:21.908Z,0.45
2023-04-11T10:08:51.967Z,0.40
2023-04-11T10:11:23.530Z,0.30
2023-04-11T10:13:51.963Z,0.40
2023-04-11T10:16:22.574Z,0.95
2023-04-11T10:19:25.414Z,0.55
2023-04-11T10:21:53.134Z,0.38
2023-04-11T10:24:22.027Z,0.75
2023-04-11T10:26:53.089Z,0.20
2023-04-11T10:29:53.016Z,0.60
2023-04-11T10:32:26.164Z,0.40
2023-04-11T10:35:35.405Z,0.75
2023-04-11T10:38:03.215Z,0.15
2023-04-11T10:40:30.912Z,0.30
2023-04-11T10:43:22.024Z,0.65
2023-04-11T10:46:21.278Z,0.68
2023-04-11T10:49:00.291Z,0.28
2023-04-11T10:51:31.390Z,0.40
2023-04-11T10:54:00.780Z,0.40
2023-04-11T10:56:57.746Z,0.38
2023-04-11T11:00:08.857Z,0.95
2023-04-11T11:02:39.215Z,0.40
2023-04-11T11:05:21.769Z,0.63
2023-04-11T11:07:53.754Z,0.73
2023-04-11T11:10:42.647Z,0.20
2023-04-11T11:13:11.180Z,0.30
2023-04-11T11:15:39.721Z,0.60
2023-04-11T11:18:09.824Z,0.38
2023-04-11T11:20:38.489Z,0.63
2023-04-11T11:23:11.236Z,0.35
2023-04-11T11:25:39.052Z,0.80
2023-04-11T11:28:08.769Z,0.85
2023-04-11T11:30:38.086Z,0.98
2023-04-11T11:33:19.791Z,0.15
2023-04-11T11:35:55.904Z,0.22
2023-04-11T11:38:28.566Z,0.35
2023-04-11T11:40:57.548Z,0.50
2023-04-11T11:43:27.261Z,0.40
2023-04-11T11:46:14.061Z,0.28
2023-04-11T11:48:44.445Z,0.40
2023-04-11T11:51:12.134Z,0.45
2023-04-11T11:53:41.574Z,0.10
2023-04-11T11:56:17.481Z,0.40
2023-04-11T11:58:45.930Z,0.20
2023-04-11T12:01:15.651Z,0.30
2023-04-11T12:03:43.687Z,0.50
2023-04-11T12:06:13.265Z,0.30
2023-04-11T12:08:49.873Z,0.30
2023-04-11T12:11:18.329Z,0.35
2023-04-11T12:13:46.503Z,0.30
2023-04-11T12:16:15.882Z,0.38
2023-04-11T12:18:45.072Z,0.38
2023-04-11T12:21:13.194Z,0.30
2023-04-11T12:23:42.357Z,0.28
2023-04-11T12:26:10.061Z,0.40
2023-04-11T12:28:37.787Z,0.45
2023-04-11T12:31:06.172Z,0.38
2023-04-11T12:33:34.024Z,0.10
2023-04-11T12:36:01.865Z,0.45
2023-04-11T12:38:29.609Z,0.38
2023-04-11T12:41:14.268Z,0.50
2023-04-11T12:43:46.358Z,0.50
2023-04-11T12:46:14.442Z,0.15
2023-04-11T12:48:42.230Z,0.35
2023-04-11T12:51:10.190Z,0.32
2023-04-11T12:53:37.872Z,0.50
2023-04-11T12:56:08.607Z,0.73
2023-04-11T12:58:36.331Z,0.30
2023-04-11T13:01:05.550Z,0.52
2023-04-11T13:03:33.516Z,0.30
2023-04-11T13:06:01.437Z,0.75
2023-04-11T13:08:29.156Z,0.50
2023-04-11T13:10:56.861Z,0.57
2023-04-11T13:13:26.006Z,0.50
2023-04-11T13:15:53.716Z,0.32
2023-04-11T13:18:21.850Z,0.22
2023-04-11T13:20:49.576Z,0.50
2023-04-11T13:23:17.622Z,0.45
2023-04-11T13:25:45.489Z,0.20
2023-04-11T13:28:13.212Z,0.40
2023-04-11T13:30:42.212Z,0.50
2023-04-11T13:33:09.961Z,0.40
2023-04-11T13:35:37.750Z,0.30
2023-04-11T13:38:05.519Z,0.20
2023-04-11T13:40:33.289Z,0.50
2023-04-11T13:43:01.097Z,0.60
2023-04-11T13:45:28.965Z,0.68
2023-04-11T13:47:58.704Z,0.30
2023-04-11T13:50:26.387Z,0.47
2023-04-11T13:52:54.213Z,0.60
2023-04-11T13:55:23.357Z,0.60
2023-04-11T13:57:51.102Z,0.73
2023-04-11T14:00:21.807Z,0.70
2023-04-11T14:02:51.247Z,0.60
2023-04-11T14:05:21.870Z,0.63
2023-04-11T14:07:49.585Z,0.38
2023-04-11T14:10:17.316Z,0.38
2023-04-11T14:12:45.040Z,0.60
2023-04-11T14:15:13.039Z,0.43
2023-04-11T14:17:40.925Z,0.30
2023-04-11T14:20:11.528Z,0.68
2023-04-11T14:22:41.275Z,0.52
2023-04-11T14:25:10.971Z,0.70
2023-04-11T14:27:41.135Z,0.55
2023-04-11T14:30:11.478Z,0.63
2023-04-11T14:32:39.958Z,0.38
2023-04-11T14:35:09.749Z,0.22
2023-04-11T14:37:38.286Z,0.75
2023-04-11T14:40:11.061Z,0.40
2023-04-11T14:42:39.475Z,0.40
2023-04-11T14:45:08.861Z,0.35
2023-04-11T14:47:37.044Z,0.40
2023-04-11T14:50:05.507Z,0.43
2023-04-11T14:52:33.214Z,0.70
2023-04-11T14:55:00.903Z,0.55
2023-04-11T14:57:47.785Z,0.52
2023-04-11T15:00:19.792Z,0.70
2023-04-11T15:02:49.304Z,0.20
2023-04-11T15:05:19.392Z,0.30
2023-04-11T15:07:49.084Z,0.45
2023-04-11T15:10:21.276Z,0.43
2023-04-11T15:12:50.937Z,0.50
2023-04-11T15:15:18.657Z,0.30
2023-04-11T15:17:49.700Z,0.28
2023-04-11T15:20:19.536Z,0.40
2023-04-11T15:22:47.227Z,0.93
2023-04-11T15:25:16.680Z,0.20
2023-04-11T15:27:45.363Z,0.52
2023-04-11T15:30:15.176Z,0.25
2023-04-11T15:32:44.152Z,0.30
2023-04-11T15:35:12.222Z,0.10
2023-04-11T15:37:40.813Z,0.22
2023-04-11T15:40:11.795Z,0.45
2023-04-11T15:42:39.543Z,0.50
2023-04-11T15:45:08.874Z,0.55
2023-04-11T15:47:37.945Z,0.35
2023-04-11T15:50:07.237Z,0.38
2023-04-11T15:52:34.954Z,0.60
2023-04-11T15:55:02.676Z,0.55
2023-04-11T15:57:30.397Z,0.10
2023-04-11T15:59:59.560Z,0.38
2023-04-11T16:02:28.085Z,0.40
2023-04-11T16:04:57.482Z,0.35
2023-04-11T16:07:26.185Z,0.55
2023-04-11T16:09:53.892Z,0.50
2023-04-11T16:12:21.616Z,0.43
2023-04-11T16:14:49.403Z,0.50
2023-04-11T16:17:18.907Z,0.50
2023-04-11T16:19:46.699Z,0.35
2023-04-11T16:22:16.444Z,0.25
2023-04-11T16:24:44.377Z,0.40
2023-04-11T16:27:12.077Z,0.32
2023-04-11T16:29:41.836Z,0.45
2023-04-11T16:32:09.931Z,0.35
2023-04-11T16:34:38.002Z,0.20
2023-04-11T16:37:06.631Z,0.25
2023-04-11T16:39:35.828Z,0.30
2023-04-11T16:42:03.504Z,0.38
2023-04-11T16:44:31.214Z,0.57
2023-04-11T16:46:58.925Z,0.35
2023-04-11T16:49:26.712Z,0.50
2023-04-11T16:51:54.488Z,0.32
2023-04-11T16:54:22.192Z,0.30
2023-04-11T16:56:51.424Z,0.28
2023-04-11T16:59:19.712Z,0.57
2023-04-11T17:01:47.670Z,0.50
2023-04-11T17:04:15.791Z,0.25
2023-04-11T17:06:43.835Z,0.45
2023-04-11T17:09:11.605Z,0.40
2023-04-11T17:11:40.064Z,0.30
2023-04-11T17:14:09.144Z,0.47
2023-04-11T17:16:37.108Z,0.28
2023-04-11T17:19:04.887Z,0.65
2023-04-11T17:21:33.178Z,0.47
2023-04-11T17:24:01.267Z,0.28
2023-04-11T17:26:29.159Z,0.43
2023-04-11T17:28:56.977Z,0.45
2023-04-11T17:31:27.865Z,0.73
2023-04-11T17:33:56.123Z,0.17
2023-04-11T17:36:24.234Z,1.30
2023-04-11T17:38:54.192Z,0.68
2023-04-11T17:41:22.728Z,0.40
2023-04-11T17:43:50.620Z,0.30
2023-04-11T17:46:20.137Z,1.17
2023-04-11T17:48:49.241Z,0.20
2023-04-11T17:51:17.077Z,0.68
2023-04-11T17:53:44.892Z,0.63
2023-04-11T17:56:12.613Z,0.30
2023-04-11T17:58:44.091Z,0.70
2023-04-11T18:01:11.902Z,0.73
2023-04-11T18:03:40.259Z,0.65
2023-04-11T18:06:10.802Z,0.93
2023-04-11T18:08:50.389Z,0.30
2023-04-11T18:11:19.094Z,0.93
2023-04-11T18:13:49.874Z,0.43
2023-04-11T18:16:18.122Z,0.57
2023-04-11T18:18:47.388Z,0.43
2023-04-11T18:21:17.389Z,0.75
2023-04-11T18:23:45.186Z,0.35
2023-04-11T18:26:13.035Z,0.32
2023-04-11T18:28:40.732Z,0.57
2023-04-11T18:31:09.416Z,0.20
2023-04-11T18:33:40.621Z,0.90
2023-04-11T18:36:10.305Z,0.47
2023-04-11T18:38:39.559Z,0.77
2023-04-11T18:41:08.024Z,0.63
2023-04-11T18:43:38.069Z,0.65
2023-04-11T18:46:07.604Z,0.57
2023-04-11T18:48:35.466Z,0.40
2023-04-11T18:51:04.836Z,0.40
2023-04-11T18:53:32.915Z,0.45
2023-04-11T18:56:03.032Z,0.63
2023-04-11T18:58:33.301Z,0.40
2023-04-11T19:01:14.120Z,0.57
2023-04-11T19:03:43.850Z,0.40
2023-04-11T19:06:13.034Z,0.43
2023-04-11T19:08:41.461Z,0.90
2023-04-11T19:11:10.581Z,0.63
2023-04-11T19:13:38.353Z,0.50
2023-04-11T19:16:07.033Z,0.50
2023-04-11T19:18:34.792Z,0.30
2023-04-11T19:21:02.725Z,0.50
2023-04-11T19:23:30.473Z,0.52
2023-04-11T19:26:00.463Z,0.30
2023-04-11T19:28:29.913Z,0.73
2023-04-11T19:30:57.602Z,0.50
2023-04-11T19:33:26.039Z,0.65
2023-04-11T19:35:54.092Z,0.52
2023-04-11T19:38:22.463Z,1.08
2023-04-11T19:40:50.256Z,0.32
2023-04-11T19:43:18.007Z,1.27
2023-04-11T19:45:47.394Z,0.60
2023-04-11T19:48:16.136Z,0.57
2023-04-11T19:50:44.005Z,0.50
2023-04-11T19:53:11.761Z,0.50
2023-04-11T19:55:39.931Z,0.65
2023-04-11T19:58:07.674Z,0.57
2023-04-11T20:00:37.689Z,0.38
2023-04-11T20:03:09.589Z,0.40
2023-04-11T20:05:37.454Z,0.40
2023-04-11T20:08:05.161Z,0.85
2023-04-11T20:10:34.071Z,0.85
2023-04-11T20:13:01.874Z,0.73
2023-04-11T20:15:29.679Z,0.22
2023-04-11T20:17:57.806Z,0.40
2023-04-11T20:20:29.277Z,0.98
2023-04-11T20:22:57.038Z,0.85
2023-04-11T20:25:24.797Z,0.40
2023-04-11T20:27:53.498Z,0.82
2023-04-11T20:30:22.598Z,0.68
2023-04-11T20:32:50.701Z,0.77
2023-04-11T20:35:19.149Z,1.38
2023-04-11T20:37:49.896Z,0.95
2023-04-11T20:40:18.346Z,0.47
2023-04-11T20:42:47.298Z,0.93
2023-04-11T20:45:16.845Z,0.47
2023-04-11T20:47:46.154Z,0.75
2023-04-11T20:50:16.926Z,0.57
2023-04-11T20:52:47.363Z,0.30
2023-04-11T20:55:16.486Z,0.40
2023-04-11T20:57:44.598Z,0.73
2023-04-11T21:00:14.966Z,0.45
2023-04-11T21:02:45.730Z,1.17
2023-04-11T21:05:14.574Z,0.85
2023-04-11T21:07:43.029Z,0.38
2023-04-11T21:10:12.082Z,0.73
2023-04-11T21:12:42.875Z,0.60
2023-04-11T21:15:11.902Z,0.55
2023-04-11T21:17:40.182Z,0.50
2023-04-11T21:20:17.419Z,0.63
2023-04-11T21:22:45.551Z,0.63
2023-04-11T21:25:13.354Z,0.40
2023-04-11T21:27:42.484Z,0.22
2023-04-11T21:30:12.315Z,0.45
2023-04-11T21:32:41.443Z,0.75
2023-04-11T21:35:11.868Z,0.82
2023-04-11T21:37:39.970Z,0.35
2023-04-11T21:40:09.213Z,0.40
2023-04-11T21:42:37.092Z,0.68
2023-04-11T21:45:08.202Z,0.57
2023-04-11T21:47:36.003Z,1.02
2023-04-11T21:50:03.798Z,0.60
2023-04-11T21:52:31.654Z,0.98
2023-04-11T21:54:59.347Z,0.30
2023-04-11T21:57:27.087Z,0.30
2023-04-11T21:59:54.978Z,0.40
2023-04-11T22:02:24.216Z,0.80
2023-04-11T22:05:05.899Z,0.68
2023-04-11T22:07:38.709Z,0.50
2023-04-11T22:10:11.500Z,0.40
2023-04-11T22:12:39.944Z,0.55
2023-04-11T22:15:10.902Z,0.85
2023-04-11T22:17:41.814Z,0.38
2023-04-11T22:20:11.212Z,0.50
2023-04-11T22:22:39.073Z,0.60
2023-04-11T22:25:08.412Z,0.60
2023-04-11T22:27:36.179Z,0.55
2023-04-11T22:30:05.105Z,0.55
2023-04-11T22:32:33.603Z,0.50
2023-04-11T22:35:04.929Z,0.50
2023-04-11T22:37:32.632Z,1.00
2023-04-11T22:40:00.376Z,0.50
2023-04-11T22:42:28.222Z,0.50
2023-04-11T22:44:55.928Z,0.32
2023-04-11T22:47:23.679Z,0.85
2023-04-11T22:49:51.590Z,0.75
2023-04-11T22:52:25.753Z,0.63
2023-04-11T22:54:53.522Z,0.50
2023-04-11T22:57:21.312Z,0.90
2023-04-11T22:59:49.038Z,0.85
2023-04-11T23:02:17.993Z,1.00
2023-04-11T23:04:46.196Z,0.75
2023-04-11T23:07:13.918Z,0.70
2023-04-11T23:09:44.938Z,1.00
2023-04-11T23:12:12.780Z,0.55
2023-04-11T23:14:40.475Z,1.27
2023-04-11T23:17:08.317Z,0.70
2023-04-11T23:19:36.801Z,0.73
2023-04-11T23:22:04.647Z,0.70
2023-04-11T23:24:32.365Z,0.60
2023-04-11T23:27:01.537Z,1.05
2023-04-11T23:29:29.253Z,0.95
2023-04-11T23:31:57.521Z,0.50
2023-04-11T23:34:25.270Z,1.35
2023-04-11T23:36:53.092Z,0.73
2023-04-11T23:39:21.371Z,0.40
2023-04-11T23:41:49.049Z,0.77
2023-04-11T23:44:18.077Z,0.50
2023-04-11T23:46:45.801Z,0.38
2023-04-11T23:49:13.487Z,0.20
2023-04-11T23:51:41.211Z,0.63
2023-04-11T23:54:08.944Z,0.52
2023-04-11T23:56:36.780Z,0.35
2023-04-11T23:59:04.493Z,0.32
